Time;durP1;ratioP1;P1;durP2;ratioP2;P2;SDS_P1;SDS_P2;PMS_P1;PMS_P2;Temp;Humidity;BMP_temperature;BMP_pressure;BME280_temperature;BME280_humidity;BME280_pressure;Samples;Min_cycle;Max_cycle;Signal;HPM_P1;HPM_P2
2021/08/15 00:00:08;;;;;;;;;14.25;12.75;;;;;26.22;41.45;101129.69;5093529;27;45459;-66
2021/08/15 00:02:34;;;;;;;;;14.50;11.75;;;;;26.22;41.16;101140.56;5066268;28;45426;-66
2021/08/15 00:04:59;;;;;;;;;12.75;12.00;;;;;26.19;41.21;101129.94;5060808;28;45517;-66
2021/08/15 00:07:25;;;;;;;;;12.25;11.75;;;;;26.16;41.20;101127.44;5060698;28;45467;-65
2021/08/15 00:09:50;;;;;;;;;12.00;12.00;;;;;26.14;40.84;101125.84;5076631;28;45908;-65
2021/08/15 00:12:16;;;;;;;;;11.00;8.75;;;;;26.12;40.94;101123.25;5057937;28;45339;-65
2021/08/15 00:14:41;;;;;;;;;12.00;10.50;;;;;26.09;41.50;101127.09;5060689;27;45570;-66
2021/08/15 00:17:07;;;;;;;;;10.00;9.00;;;;;26.08;41.00;101124.50;5089906;27;45697;-65
2021/08/15 00:19:33;;;;;;;;;8.00;8.00;;;;;26.07;41.75;101122.75;5060558;28;45791;-65
2021/08/15 00:21:58;;;;;;;;;10.25;10.25;;;;;26.04;41.30;101117.53;5060372;28;45454;-66
2021/08/15 00:24:24;;;;;;;;;9.25;9.25;;;;;26.01;41.65;101117.78;5060680;28;45304;-66
2021/08/15 00:26:50;;;;;;;;;11.25;11.00;;;;;25.98;41.59;101113.47;5060326;28;47095;-65
2021/08/15 00:29:15;;;;;;;;;11.00;11.00;;;;;25.94;41.41;101114.72;5060430;28;45377;-66
2021/08/15 00:31:41;;;;;;;;;11.50;11.00;;;;;25.91;41.34;101108.63;5055363;28;45660;-66
2021/08/15 00:34:07;;;;;;;;;10.25;9.00;;;;;25.87;41.64;101109.88;5060699;28;45458;-66
2021/08/15 00:36:32;;;;;;;;;10.00;9.25;;;;;25.80;41.58;101102.22;5060016;28;48292;-66
2021/08/15 00:38:58;;;;;;;;;10.00;8.33;;;;;25.78;41.66;101112.31;5059712;28;45456;-66
2021/08/15 00:41:23;;;;;;;;;10.00;10.00;;;;;25.75;41.73;101115.28;5070787;28;45336;-66
2021/08/15 00:43:49;;;;;;;;;8.75;8.50;;;;;25.73;41.90;101114.56;5051934;28;45433;-66
2021/08/15 00:46:14;;;;;;;;;10.50;10.50;;;;;25.72;41.75;101120.97;5060061;28;48128;-65
2021/08/15 00:48:40;;;;;;;;;9.50;9.00;;;;;25.68;42.48;101119.47;5059799;28;46101;-66
2021/08/15 00:51:06;;;;;;;;;12.25;12.25;;;;;25.66;42.39;101112.41;5060039;28;45710;-66
2021/08/15 00:53:38;;;;;;;;;12.00;11.00;;;;;25.64;42.45;101117.09;5059416;28;45493;-66
2021/08/15 00:56:05;;;;;;;;;12.50;10.50;;;;;25.58;42.58;101117.59;5059303;28;45390;-65
2021/08/15 00:58:34;;;;;;;;;11.25;9.75;;;;;25.55;42.25;101107.81;5062901;28;45319;-65
2021/08/15 01:01:07;;;;;;;;;12.50;12.50;;;;;25.57;42.76;101115.84;5058735;28;45500;-65
2021/08/15 01:03:34;;;;;;;;;14.25;13.00;;;;;25.55;42.60;101102.41;5060481;28;45593;-65
2021/08/15 01:06:00;;;;;;;;;10.50;9.25;;;;;25.53;42.84;101102.50;5075286;27;47535;-66
2021/08/15 01:08:30;;;;;;;;;11.00;11.00;;;;;25.55;43.11;101109.69;5060326;28;45293;-66
2021/08/15 01:10:55;;;;;;;;;11.25;10.25;;;;;25.54;42.80;101100.66;5060329;28;45444;-66
2021/08/15 01:13:21;;;;;;;;;12.25;11.00;;;;;25.51;43.05;101103.59;5060570;28;45371;-66
2021/08/15 01:15:47;;;;;;;;;11.25;9.75;;;;;25.48;42.55;101101.13;5059986;28;48449;-66
2021/08/15 01:18:22;;;;;;;;;8.00;8.00;;;;;25.48;42.89;101099.28;5053137;28;45912;-66
2021/08/15 01:21:13;;;;;;;;;9.50;9.50;;;;;25.49;42.87;101100.13;5059807;28;45286;-66
2021/08/15 01:23:44;;;;;;;;;14.00;12.25;;;;;25.48;43.05;101092.97;5053772;28;45762;-67
2021/08/15 01:26:13;;;;;;;;;9.25;9.25;;;;;25.42;42.37;101085.31;5060062;28;45359;-66
2021/08/15 01:28:39;;;;;;;;;11.50;8.75;;;;;25.40;43.05;101087.25;5091703;27;45451;-66
2021/08/15 01:31:05;;;;;;;;;7.00;7.00;;;;;25.35;42.38;101084.91;5060243;28;45290;-66
2021/08/15 01:33:36;;;;;;;;;10.25;8.00;;;;;25.31;42.70;101086.16;5059355;28;45315;-66
2021/08/15 01:36:04;;;;;;;;;8.75;8.75;;;;;25.25;42.93;101083.88;5055572;28;47164;-66
2021/08/15 01:38:33;;;;;;;;;8.75;8.50;;;;;25.23;43.22;101085.88;5055640;28;45327;-66
2021/08/15 01:40:59;;;;;;;;;8.00;8.00;;;;;25.22;43.24;101089.56;5059891;28;45436;-66
2021/08/15 01:43:25;;;;;;;;;5.75;5.50;;;;;25.23;42.73;101085.88;5058289;28;45627;-66
2021/08/15 01:45:51;;;;;;;;;7.25;7.25;;;;;25.21;42.84;101083.28;5057458;28;45491;-66
2021/08/15 01:48:18;;;;;;;;;7.25;7.25;;;;;25.22;42.80;101085.00;5063192;28;45436;-66
2021/08/15 01:50:44;;;;;;;;;7.50;7.50;;;;;25.23;42.96;101080.44;5060472;28;45494;-66
2021/08/15 01:53:13;;;;;;;;;7.50;7.00;;;;;25.23;43.15;101075.00;5062823;27;45679;-66
2021/08/15 01:55:40;;;;;;;;;8.00;8.00;;;;;25.23;42.93;101073.16;5059384;28;46279;-66
2021/08/15 01:58:06;;;;;;;;;8.33;8.33;;;;;25.25;43.00;101078.47;5058733;28;45282;-66
2021/08/15 02:00:33;;;;;;;;;10.75;8.75;;;;;25.27;43.17;101072.91;5058825;27;45345;-66
2021/08/15 02:02:58;;;;;;;;;8.50;7.50;;;;;25.27;43.27;101065.63;5052651;28;45346;-66
2021/08/15 02:05:24;;;;;;;;;8.25;8.25;;;;;25.27;43.35;101070.19;5058819;28;48182;-66
2021/08/15 02:07:54;;;;;;;;;5.50;5.50;;;;;25.28;43.36;101064.63;5059169;28;45333;-66
2021/08/15 02:10:22;;;;;;;;;9.00;9.00;;;;;25.30;42.92;101064.53;5059528;28;45710;-66
2021/08/15 02:12:48;;;;;;;;;11.00;8.00;;;;;25.30;43.18;101067.25;5059003;28;45401;-66
2021/08/15 02:15:13;;;;;;;;;7.25;7.25;;;;;25.32;43.00;101065.28;5055684;27;47308;-66
2021/08/15 02:17:39;;;;;;;;;10.25;8.50;;;;;25.30;42.98;101065.41;5051837;28;45405;-66
2021/08/15 02:20:06;;;;;;;;;8.50;7.25;;;;;25.28;43.33;101048.31;5058909;28;45321;-65
2021/08/15 02:22:31;;;;;;;;;8.00;6.50;;;;;25.26;43.54;101053.03;5057802;28;45330;-65
2021/08/15 02:24:57;;;;;;;;;8.00;8.00;;;;;25.25;43.66;101051.28;5058199;28;48276;-66
2021/08/15 02:27:22;;;;;;;;;9.33;6.33;;;;;25.25;43.58;101051.28;5058585;28;45966;-65
2021/08/15 02:29:48;;;;;;;;;6.25;6.25;;;;;25.27;43.76;101048.44;5059008;28;45613;-65
2021/08/15 02:32:13;;;;;;;;;9.25;8.00;;;;;25.27;43.30;101038.44;5059033;28;45535;-65
2021/08/15 02:34:39;;;;;;;;;9.25;7.50;;;;;25.27;43.58;101038.44;5058286;28;47681;-65
2021/08/15 02:37:04;;;;;;;;;6.00;6.00;;;;;25.24;43.63;101041.41;5058835;28;45327;-65
2021/08/15 02:39:30;;;;;;;;;7.50;7.25;;;;;25.24;43.48;101041.41;5057824;28;45338;-65
2021/08/15 02:41:55;;;;;;;;;8.00;8.00;;;;;25.23;43.59;101040.56;5057882;28;45608;-65
2021/08/15 02:44:21;;;;;;;;;7.00;7.00;;;;;25.21;43.73;101041.66;5054356;28;48612;-65
2021/08/15 02:46:46;;;;;;;;;6.75;6.00;;;;;25.19;43.93;101049.94;5088773;27;45352;-65
2021/08/15 02:49:12;;;;;;;;;9.00;8.25;;;;;25.18;44.09;101031.03;5062438;28;45845;-65
2021/08/15 02:51:37;;;;;;;;;10.75;9.25;;;;;25.17;43.80;101032.91;5057761;28;45315;-65
2021/08/15 02:54:03;;;;;;;;;8.75;7.75;;;;;25.15;44.38;101025.81;5058005;28;47313;-65
2021/08/15 02:56:28;;;;;;;;;6.00;6.00;;;;;25.14;44.44;101014.09;5056409;28;45995;-65
2021/08/15 02:58:54;;;;;;;;;9.75;8.50;;;;;25.12;44.33;101013.34;5056969;28;45532;-65
2021/08/15 03:01:19;;;;;;;;;10.50;9.25;;;;;25.12;44.32;101010.63;5054475;28;45525;-65
2021/08/15 03:03:45;;;;;;;;;8.00;8.00;;;;;25.11;44.30;101008.91;5057892;28;47753;-65
2021/08/15 03:06:10;;;;;;;;;8.00;6.33;;;;;25.09;44.08;101010.88;5058537;28;45290;-65
2021/08/15 03:08:36;;;;;;;;;10.00;9.00;;;;;25.09;44.50;101008.16;5058467;28;45716;-65
2021/08/15 03:11:01;;;;;;;;;9.00;9.00;;;;;25.07;44.46;101002.00;5058483;28;45315;-65
2021/08/15 03:13:27;;;;;;;;;7.00;7.00;;;;;25.06;44.52;101010.28;5070702;27;47175;-65
2021/08/15 03:15:52;;;;;;;;;9.25;7.00;;;;;25.03;44.60;101003.22;5058773;28;45372;-65
2021/08/15 03:18:18;;;;;;;;;7.25;7.00;;;;;24.98;44.89;101002.66;5055151;28;45278;-65
2021/08/15 03:20:45;;;;;;;;;7.00;7.00;;;;;24.93;44.65;100996.75;5061960;28;45689;-65
2021/08/15 03:23:10;;;;;;;;;7.00;6.50;;;;;24.90;45.09;100996.97;5060515;28;47073;-65
2021/08/15 03:25:37;;;;;;;;;7.00;7.00;;;;;24.90;44.97;100994.25;5061564;28;45938;-65
2021/08/15 03:28:07;;;;;;;;;6.00;6.00;;;;;24.90;45.28;100988.81;5061131;28;45375;-65
2021/08/15 03:30:33;;;;;;;;;7.33;7.33;;;;;24.90;45.02;100991.53;5061851;28;45535;-65
2021/08/15 03:32:59;;;;;;;;;6.75;6.75;;;;;24.90;44.90;100995.13;5061442;27;47077;-65
2021/08/15 03:35:25;;;;;;;;;5.00;5.00;;;;;24.90;44.84;100989.72;5062005;28;45523;-65
2021/08/15 03:37:50;;;;;;;;;8.67;8.67;;;;;24.91;45.38;100998.72;5062163;28;45316;-65
2021/08/15 03:40:16;;;;;;;;;7.00;7.00;;;;;24.90;45.17;100991.53;5061187;28;45788;-65
2021/08/15 03:42:42;;;;;;;;;7.33;6.67;;;;;24.87;45.19;100992.63;5061640;27;47517;-65
2021/08/15 03:45:08;;;;;;;;;8.75;8.75;;;;;24.85;45.36;100994.59;5061680;28;45447;-65
2021/08/15 03:47:34;;;;;;;;;8.00;8.00;;;;;24.84;45.33;100995.59;5064250;27;45318;-65
2021/08/15 03:50:01;;;;;;;;;5.00;5.00;;;;;24.84;45.46;101000.16;5063170;28;45482;-65
2021/08/15 03:52:27;;;;;;;;;7.00;7.00;;;;;24.85;45.49;100991.91;5064521;27;47536;-65
2021/08/15 03:54:52;;;;;;;;;8.50;7.25;;;;;24.83;45.62;100996.56;5055982;27;45612;-63
2021/08/15 03:57:18;;;;;;;;;10.00;7.75;;;;;24.82;45.85;100994.84;5060883;28;45606;-65
2021/08/15 03:59:44;;;;;;;;;9.00;7.75;;;;;24.81;45.79;100989.53;5060174;28;45350;-65
2021/08/15 04:02:10;;;;;;;;;6.50;5.50;;;;;24.78;45.91;100987.94;5056868;28;48187;-64
2021/08/15 04:04:36;;;;;;;;;9.75;8.00;;;;;24.76;45.59;100991.72;5060260;28;45602;-66
2021/08/15 04:07:01;;;;;;;;;8.33;8.33;;;;;24.74;46.01;100982.84;5059846;28;45492;-65
2021/08/15 04:09:27;;;;;;;;;8.67;7.67;;;;;24.71;45.97;100985.81;5061181;28;45360;-65
2021/08/15 04:11:52;;;;;;;;;8.25;7.00;;;;;24.70;45.70;100981.34;5060846;28;48401;-65
2021/08/15 04:14:18;;;;;;;;;8.67;8.67;;;;;24.70;45.66;100978.66;5058623;28;45772;-65
2021/08/15 04:16:43;;;;;;;;;6.67;6.67;;;;;24.70;46.03;100981.34;5089162;27;45281;-65
2021/08/15 04:19:09;;;;;;;;;7.25;6.25;;;;;24.69;46.05;100987.78;5057613;28;45680;-65
2021/08/15 04:21:34;;;;;;;;;9.00;8.33;;;;;24.67;45.94;100985.19;5060731;28;46760;-66
2021/08/15 04:24:00;;;;;;;;;7.00;6.25;;;;;24.65;46.03;100979.88;5060811;28;45597;-65
2021/08/15 04:26:26;;;;;;;;;10.00;6.33;;;;;24.62;46.31;100968.34;5058792;28;46435;-65
2021/08/15 04:28:52;;;;;;;;;8.00;8.00;;;;;24.58;46.17;100970.44;5059684;28;45441;-66
2021/08/15 04:31:17;;;;;;;;;10.33;9.00;;;;;24.58;46.48;100969.59;5054048;28;46158;-65
2021/08/15 04:33:43;;;;;;;;;11.00;10.67;;;;;24.57;46.48;100967.84;5057900;28;45389;-64
2021/08/15 04:36:08;;;;;;;;;7.67;7.67;;;;;24.56;46.57;100961.56;5060822;28;45518;-64
2021/08/15 04:38:34;;;;;;;;;7.50;7.00;;;;;24.57;46.40;100967.84;5060873;28;45537;-64
2021/08/15 04:41:00;;;;;;;;;8.75;8.00;;;;;24.56;46.77;100966.13;5060416;28;46899;-65
2021/08/15 04:43:25;;;;;;;;;9.00;7.25;;;;;24.55;46.76;100965.25;5060626;28;45406;-64
2021/08/15 04:45:51;;;;;;;;;8.50;7.50;;;;;24.54;47.01;100971.69;5060629;28;45362;-65
2021/08/15 04:48:16;;;;;;;;;8.50;6.75;;;;;24.55;46.68;100969.84;5059654;28;45757;-64
2021/08/15 04:50:43;;;;;;;;;12.25;9.25;;;;;24.52;46.46;100970.94;5060037;28;48566;-65
2021/08/15 04:53:08;;;;;;;;;9.25;9.25;;;;;24.53;46.74;100969.09;5060829;28;45344;-65
2021/08/15 04:55:34;;;;;;;;;9.33;7.33;;;;;24.52;46.78;100965.50;5052057;28;45671;-65
2021/08/15 04:58:00;;;;;;;;;8.00;5.75;;;;;24.50;46.78;100964.72;5059758;28;45373;-65
2021/08/15 05:00:26;;;;;;;;;11.00;8.00;;;;;24.50;47.00;100966.59;5054762;28;48451;-65
2021/08/15 05:02:51;;;;;;;;;7.00;7.00;;;;;24.49;47.08;100965.72;5071111;28;45813;-65
2021/08/15 05:05:17;;;;;;;;;8.25;6.75;;;;;24.48;46.74;100960.41;5058750;28;45330;-65
2021/08/15 05:07:43;;;;;;;;;10.25;8.25;;;;;24.48;47.00;100964.00;5073381;28;45366;-65
2021/08/15 05:10:09;;;;;;;;;8.75;8.25;;;;;24.47;46.97;100956.84;5058742;27;47146;-65
2021/08/15 05:12:34;;;;;;;;;9.25;7.50;;;;;24.47;46.93;100961.41;5059196;28;45304;-65
2021/08/15 05:14:59;;;;;;;;;8.00;6.50;;;;;24.48;47.06;100963.13;5059637;28;45321;-65
2021/08/15 05:17:25;;;;;;;;;8.00;8.00;;;;;24.47;47.32;100966.81;5058277;28;45411;-65
2021/08/15 05:19:51;;;;;;;;;7.00;7.00;;;;;24.47;47.32;100962.25;5058696;28;46194;-65
2021/08/15 05:22:16;;;;;;;;;6.00;6.00;;;;;24.46;47.18;100965.09;5059530;28;45420;-64
2021/08/15 05:24:42;;;;;;;;;7.50;5.00;;;;;24.45;47.60;100961.50;5058967;28;45326;-65
2021/08/15 05:27:07;;;;;;;;;8.50;8.50;;;;;24.43;47.47;100957.19;5058391;28;45598;-65
2021/08/15 05:29:32;;;;;;;;;8.75;8.00;;;;;24.39;47.51;100956.53;5058946;28;45658;-64
2021/08/15 05:31:58;;;;;;;;;9.00;8.50;;;;;24.39;47.20;100959.25;5059158;28;45408;-65
2021/08/15 05:34:23;;;;;;;;;6.75;6.75;;;;;24.37;47.89;100961.22;5058769;28;45424;-65
2021/08/15 05:36:49;;;;;;;;;8.25;6.25;;;;;24.38;47.47;100957.53;5053488;28;45784;-64
2021/08/15 05:39:14;;;;;;;;;7.00;7.00;;;;;24.38;47.60;100960.22;5056975;27;48151;-65
2021/08/15 05:41:40;;;;;;;;;9.00;9.00;;;;;24.38;47.54;100949.38;5057882;28;45426;-64
2021/08/15 05:44:05;;;;;;;;;9.00;8.00;;;;;24.40;47.49;100949.28;5058368;28;45739;-64
2021/08/15 05:46:31;;;;;;;;;5.25;5.25;;;;;24.41;47.27;100953.75;5059165;28;45532;-64
2021/08/15 05:48:56;;;;;;;;;10.00;8.75;;;;;24.41;47.43;100954.59;5058559;28;47152;-63
2021/08/15 05:51:22;;;;;;;;;10.25;7.25;;;;;24.42;47.91;100953.63;5058972;28;45380;-64
2021/08/15 05:53:47;;;;;;;;;7.75;6.75;;;;;24.43;47.25;100959.91;5057546;28;45259;-64
2021/08/15 05:56:13;;;;;;;;;7.75;6.75;;;;;24.43;47.35;100963.47;5049329;27;45358;-64
2021/08/15 05:58:38;;;;;;;;;9.25;7.50;;;;;24.46;47.71;100957.81;5058150;28;45396;-64
2021/08/15 06:01:04;;;;;;;;;9.25;8.00;;;;;24.46;47.45;100960.53;5054342;28;45235;-64
2021/08/15 06:03:29;;;;;;;;;8.25;7.75;;;;;24.48;47.40;100955.84;5058411;28;45336;-64
2021/08/15 06:05:55;;;;;;;;;7.00;7.00;;;;;24.51;47.46;100971.03;5058686;28;45377;-64
2021/08/15 06:08:20;;;;;;;;;7.00;4.67;;;;;24.52;47.67;100964.59;5058392;28;46949;-64
2021/08/15 06:10:46;;;;;;;;;9.50;6.00;;;;;24.55;47.57;100961.69;5054233;28;45742;-64
2021/08/15 06:13:11;;;;;;;;;9.25;7.75;;;;;24.56;47.18;100963.41;5073998;28;45329;-64
2021/08/15 06:15:37;;;;;;;;;10.00;8.00;;;;;24.57;47.20;100951.56;5058257;28;45483;-64
2021/08/15 06:18:03;;;;;;;;;8.50;8.50;;;;;24.57;47.46;100952.44;5045096;28;48216;-64
2021/08/15 06:20:29;;;;;;;;;9.00;6.75;;;;;24.57;47.19;100957.88;5051867;28;45338;-64
2021/08/15 06:22:54;;;;;;;;;6.25;5.00;;;;;24.58;47.86;100958.72;5058121;28;45329;-64
2021/08/15 06:25:20;;;;;;;;;7.75;6.75;;;;;24.58;47.40;100959.59;5058705;28;45649;-64
2021/08/15 06:27:45;;;;;;;;;6.00;6.00;;;;;24.59;47.11;100969.47;5054765;28;48412;-64
2021/08/15 06:30:17;;;;;;;;;6.00;6.00;;;;;24.59;47.54;100953.19;5051924;28;45426;-65
2021/08/15 06:32:50;;;;;;;;;5.25;5.25;;;;;24.59;47.53;100963.19;5067470;27;45407;-64
2021/08/15 06:35:21;;;;;;;;;14.25;12.00;;;;;24.62;47.80;100965.66;5057775;28;45335;-64
2021/08/15 06:37:50;;;;;;;;;8.50;8.50;;;;;24.63;47.37;100970.09;5057103;28;47054;-64
2021/08/15 06:40:16;;;;;;;;;7.75;7.75;;;;;24.63;47.73;100964.66;5054968;28;45332;-64
2021/08/15 06:42:42;;;;;;;;;9.50;8.25;;;;;24.64;47.76;100967.25;5054631;28;45356;-64
2021/08/15 06:45:09;;;;;;;;;5.00;5.00;;;;;24.63;47.13;100970.94;5054082;28;45390;-64
2021/08/15 06:47:34;;;;;;;;;9.00;9.00;;;;;24.64;47.25;100958.25;5057859;28;48431;-64
2021/08/15 06:50:02;;;;;;;;;10.00;8.00;;;;;24.65;47.14;100952.72;5059188;28;45427;-64
2021/08/15 06:52:29;;;;;;;;;7.00;7.00;;;;;24.67;47.43;100951.75;5062012;27;45278;-64
2021/08/15 06:54:55;;;;;;;;;10.25;10.25;;;;;24.68;47.54;100948.03;5061745;28;45302;-64
2021/08/15 06:57:20;;;;;;;;;8.25;8.25;;;;;24.68;47.40;100948.91;5061175;28;46886;-64
2021/08/15 06:59:45;;;;;;;;;14.25;13.75;;;;;24.69;47.42;100956.06;5061744;28;45654;-64
2021/08/15 07:02:11;;;;;;;;;18.00;18.00;;;;;24.68;47.44;100948.91;5057807;28;45616;-64
2021/08/15 07:04:36;;;;;;;;;11.00;11.00;;;;;24.68;47.49;100954.34;5061421;27;45479;-64
2021/08/15 07:07:02;;;;;;;;;10.00;7.50;;;;;24.69;47.45;100952.50;5061616;28;47070;-64
2021/08/15 07:09:28;;;;;;;;;10.00;10.00;;;;;24.68;47.49;100951.63;5076718;27;46573;-64
2021/08/15 07:11:53;;;;;;;;;8.00;8.00;;;;;24.73;47.33;100953.97;5061366;27;45732;-64
2021/08/15 07:14:19;;;;;;;;;6.50;6.50;;;;;24.76;47.48;100960.03;5062167;28;45431;-64
2021/08/15 07:16:44;;;;;;;;;9.33;8.00;;;;;24.79;47.45;100961.66;5061719;28;45482;-65
2021/08/15 07:19:10;;;;;;;;;11.25;10.00;;;;;24.84;47.36;100973.00;5057249;28;45496;-64
2021/08/15 07:21:35;;;;;;;;;6.00;5.75;;;;;24.84;47.04;100965.72;5056913;28;45319;-65
2021/08/15 07:24:01;;;;;;;;;5.50;5.25;;;;;24.80;46.81;100966.97;5060585;28;45655;-66
2021/08/15 07:26:26;;;;;;;;;6.50;6.50;;;;;24.79;46.49;100967.94;5060135;28;47086;-66
2021/08/15 07:28:53;;;;;;;;;8.25;7.00;;;;;24.77;46.62;100963.59;5061331;27;45933;-66
2021/08/15 07:31:18;;;;;;;;;5.00;3.50;;;;;24.79;46.95;100965.25;5059804;28;45335;-65
2021/08/15 07:33:44;;;;;;;;;6.75;6.00;;;;;24.83;46.92;100972.16;5059773;28;45299;-65
2021/08/15 07:36:09;;;;;;;;;7.75;7.50;;;;;24.86;47.23;100963.75;5059827;28;46125;-65
2021/08/15 07:38:35;;;;;;;;;9.00;9.00;;;;;24.91;47.02;100961.56;5060285;28;45440;-63
2021/08/15 07:41:00;;;;;;;;;7.25;7.25;;;;;24.95;46.57;100963.06;5060650;27;45772;-65
2021/08/15 07:43:26;;;;;;;;;6.67;6.67;;;;;24.98;46.60;100958.38;5060854;28;45380;-64
2021/08/15 07:45:52;;;;;;;;;11.33;7.00;;;;;25.00;46.63;100953.66;5058615;28;47282;-64
2021/08/15 07:48:18;;;;;;;;;9.00;8.00;;;;;25.01;46.50;100953.59;5059852;28;45811;-65
2021/08/15 07:50:43;;;;;;;;;10.75;10.50;;;;;25.02;46.58;100949.00;5059703;28;45391;-64
2021/08/15 07:53:23;;;;;;;;;6.75;6.00;;;;;25.02;46.49;100952.59;5058160;28;45443;-65
2021/08/15 07:55:51;;;;;;;;;7.00;7.00;;;;;25.06;46.60;100953.25;5060891;28;46273;-65
2021/08/15 07:58:17;;;;;;;;;9.00;8.00;;;;;25.10;46.63;100950.16;5060576;28;45445;-64
2021/08/15 08:00:44;;;;;;;;;7.00;7.00;;;;;25.17;46.80;100950.56;5059169;28;45286;-64
2021/08/15 08:03:10;;;;;;;;;8.25;8.25;;;;;25.22;46.13;100954.63;5053821;28;45398;-65
2021/08/15 08:05:36;;;;;;;;;7.00;6.00;;;;;25.27;46.58;100951.53;5058860;28;46964;-65
2021/08/15 08:08:01;;;;;;;;;7.00;5.75;;;;;25.32;46.24;100945.75;5058894;28;45322;-64
2021/08/15 08:10:27;;;;;;;;;8.25;8.25;;;;;25.34;46.16;100943.75;5058416;28;45360;-65
2021/08/15 08:12:52;;;;;;;;;7.00;5.75;;;;;25.38;46.47;100945.25;5060329;28;45528;-65
2021/08/15 08:15:18;;;;;;;;;9.75;9.00;;;;;25.39;45.68;100944.25;5062472;28;46970;-65
2021/08/15 08:17:43;;;;;;;;;7.67;7.67;;;;;25.41;46.06;100939.56;5058498;28;45651;-65
2021/08/15 08:20:10;;;;;;;;;9.33;8.67;;;;;25.43;45.66;100933.03;5060198;28;45484;-65
2021/08/15 08:22:35;;;;;;;;;9.00;6.00;;;;;25.46;45.46;100938.22;5052461;28;45546;-65
2021/08/15 08:25:01;;;;;;;;;9.50;8.50;;;;;25.49;45.84;100937.09;5059846;28;47608;-65
2021/08/15 08:27:26;;;;;;;;;10.00;7.33;;;;;25.52;45.62;100924.13;5053379;27;45413;-65
2021/08/15 08:29:52;;;;;;;;;9.50;7.75;;;;;25.58;45.57;100930.06;5060131;28;45451;-65
2021/08/15 08:32:17;;;;;;;;;7.00;7.00;;;;;25.60;45.33;100923.50;5058609;28;45488;-65
2021/08/15 08:34:43;;;;;;;;;7.00;6.67;;;;;25.65;46.04;100925.84;5059638;27;46986;-65
2021/08/15 08:37:08;;;;;;;;;8.00;8.00;;;;;25.68;45.64;100931.91;5060620;28;45428;-65
2021/08/15 08:39:34;;;;;;;;;10.25;9.75;;;;;25.75;45.48;100935.00;5055777;28;45611;-65
2021/08/15 08:42:03;;;;;;;;;9.50;7.75;;;;;25.78;45.42;100932.91;5059937;28;45644;-65
2021/08/15 08:44:33;;;;;;;;;9.50;9.50;;;;;25.81;45.24;100923.66;5059436;27;47382;-65
2021/08/15 08:47:08;;;;;;;;;9.25;7.75;;;;;25.87;45.22;100927.69;5059176;28;45943;-65
2021/08/15 08:49:35;;;;;;;;;8.25;8.25;;;;;25.89;44.90;100928.44;5051988;28;45441;-65
2021/08/15 08:52:00;;;;;;;;;9.00;7.75;;;;;25.91;45.11;100921.88;5057672;28;45413;-65
2021/08/15 08:54:27;;;;;;;;;8.75;8.75;;;;;25.97;45.63;100928.69;5054668;28;47116;-65
2021/08/15 08:56:53;;;;;;;;;8.00;8.00;;;;;26.00;45.06;100925.69;5051408;28;46205;-65
2021/08/15 08:59:19;;;;;;;;;9.00;9.00;;;;;26.04;45.34;100929.88;5059460;28;45500;-66
2021/08/15 09:01:45;;;;;;;;;9.00;9.00;;;;;26.08;45.36;100924.06;5058892;28;45337;-67
2021/08/15 09:04:10;;;;;;;;;10.75;10.00;;;;;26.11;45.05;100926.53;5058877;28;45441;-67
2021/08/15 09:06:39;;;;;;;;;11.00;11.00;;;;;26.16;45.43;100912.53;5058508;28;45598;-67
2021/08/15 09:09:10;;;;;;;;;10.67;10.67;;;;;26.21;44.93;100912.16;5059278;28;45432;-67
2021/08/15 09:11:36;;;;;;;;;9.50;9.00;;;;;26.25;44.67;100909.06;5046806;28;45430;-66
2021/08/15 09:14:12;;;;;;;;;8.00;8.00;;;;;26.31;45.24;100899.53;5059329;28;45638;-66
2021/08/15 09:16:53;;;;;;;;;12.00;10.75;;;;;26.36;45.12;100903.59;5090156;27;45579;-66
2021/08/15 09:19:29;;;;;;;;;10.00;9.50;;;;;26.42;45.28;100898.63;5059110;28;45454;-67
2021/08/15 09:21:57;;;;;;;;;11.00;9.00;;;;;26.48;44.46;100895.38;5058087;28;45508;-66
2021/08/15 09:24:23;;;;;;;;;10.75;9.50;;;;;26.51;44.52;100890.53;5059117;28;47365;-66
2021/08/15 09:26:57;;;;;;;;;10.25;10.25;;;;;26.57;44.86;100890.03;5058880;28;45656;-66
2021/08/15 09:29:22;;;;;;;;;17.00;14.00;;;;;26.60;45.31;100881.59;5059147;28;45626;-66
2021/08/15 09:31:48;;;;;;;;;12.00;12.00;;;;;26.64;44.56;100880.31;5055368;28;45487;-65
2021/08/15 09:34:28;;;;;;;;;14.00;12.00;;;;;26.68;45.07;100884.53;5058839;28;46392;-67
2021/08/15 09:36:54;;;;;;;;;13.75;12.00;;;;;26.73;44.65;100883.25;5047509;28;45393;-66
2021/08/15 09:39:31;;;;;;;;;12.25;12.25;;;;;26.78;45.32;100880.97;5089504;27;45653;-66
2021/08/15 09:41:56;;;;;;;;;14.00;13.00;;;;;26.82;44.94;100883.31;5050082;28;45692;-66
2021/08/15 09:44:30;;;;;;;;;10.00;10.00;;;;;26.87;44.54;100874.75;5058714;28;48512;-66
2021/08/15 09:47:01;;;;;;;;;14.75;12.00;;;;;26.92;45.25;100870.59;5058734;28;45502;-66
2021/08/15 09:49:51;;;;;;;;;14.00;12.25;;;;;26.97;45.00;100875.66;5058066;28;45366;-66
2021/08/15 09:52:18;;;;;;;;;14.50;14.00;;;;;27.01;45.13;100871.69;5066897;27;45503;-67
2021/08/15 09:54:55;;;;;;;;;13.50;12.75;;;;;27.04;45.08;100873.28;5054002;28;47557;-66
2021/08/15 09:57:35;;;;;;;;;11.50;11.00;;;;;27.08;44.98;100866.59;5058518;28;45646;-67
2021/08/15 10:00:24;;;;;;;;;12.25;11.25;;;;;27.12;44.43;100868.88;5057749;28;45455;-66
2021/08/15 10:02:50;;;;;;;;;15.50;15.25;;;;;27.14;44.52;100868.75;5085651;27;45569;-66
2021/08/15 10:05:15;;;;;;;;;13.00;13.00;;;;;27.17;44.93;100872.06;5051257;28;47902;-66
2021/08/15 10:07:42;;;;;;;;;13.00;13.00;;;;;27.21;44.84;100869.94;5056366;28;45333;-66
2021/08/15 10:10:11;;;;;;;;;13.00;12.50;;;;;27.26;45.30;100864.94;5054164;28;45342;-66
2021/08/15 10:12:36;;;;;;;;;15.25;15.25;;;;;27.29;45.12;100861.91;5058722;27;45436;-66
2021/08/15 10:15:11;;;;;;;;;15.25;13.75;;;;;27.33;44.95;100851.63;5058471;28;46170;-67
2021/08/15 10:17:38;;;;;;;;;13.50;13.50;;;;;27.39;44.82;100853.78;5090714;27;45419;-66
2021/08/15 10:20:07;;;;;;;;;13.25;13.25;;;;;27.46;44.62;100860.44;5058619;28;45370;-66
2021/08/15 10:22:37;;;;;;;;;14.25;13.25;;;;;27.52;45.27;100858.00;5058094;28;45439;-66
2021/08/15 10:25:07;;;;;;;;;14.50;14.50;;;;;27.62;45.35;100855.28;5052669;28;46176;-66
2021/08/15 10:27:41;;;;;;;;;14.00;13.50;;;;;27.70;44.81;100849.19;5084605;27;45578;-66
2021/08/15 10:30:27;;;;;;;;;16.75;16.75;;;;;27.72;44.24;100855.38;5057123;28;45709;-67
2021/08/15 10:32:55;;;;;;;;;14.50;14.50;;;;;27.73;44.71;100840.72;5037589;28;45614;-66
2021/08/15 10:35:22;;;;;;;;;14.75;14.50;;;;;27.79;44.52;100837.41;5058367;28;46483;-66
2021/08/15 10:37:54;;;;;;;;;14.25;14.25;;;;;27.85;44.52;100834.13;5056939;28;45397;-67
2021/08/15 10:40:38;;;;;;;;;13.75;13.75;;;;;27.92;44.39;100823.50;5056748;28;45493;-67
2021/08/15 10:43:05;;;;;;;;;14.50;14.00;;;;;27.99;44.17;100819.22;5075518;27;45637;-66
2021/08/15 10:45:31;;;;;;;;;14.00;12.75;;;;;28.04;44.53;100819.63;5055214;28;47357;-66
2021/08/15 10:48:08;;;;;;;;;13.75;13.00;;;;;28.07;44.24;100808.44;5056944;28;45337;-66
2021/08/15 10:50:56;;;;;;;;;14.75;13.50;;;;;28.10;43.78;100819.06;5056987;28;45434;-66
2021/08/15 10:53:31;;;;;;;;;14.75;14.00;;;;;28.12;43.97;100808.88;5055202;28;45630;-66
2021/08/15 10:55:58;;;;;;;;;13.50;13.00;;;;;28.16;44.35;100807.56;5079687;27;46812;-67
2021/08/15 10:58:44;;;;;;;;;6.75;4.00;;;;;28.22;43.81;100806.16;5056333;27;45472;-67
2021/08/15 11:01:19;;;;;;;;;16.75;14.00;;;;;28.27;43.54;100802.00;5052715;28;45430;-66
2021/08/15 11:03:47;;;;;;;;;11.00;10.00;;;;;28.31;43.18;100797.97;5056686;28;45322;-67
2021/08/15 11:06:39;;;;;;;;;10.75;10.75;;;;;28.37;43.01;100802.00;5057556;28;47233;-67
2021/08/15 11:09:06;;;;;;;;;12.00;11.00;;;;;28.41;42.41;100796.09;5056704;28;45333;-67
2021/08/15 11:11:35;;;;;;;;;10.00;9.75;;;;;28.46;42.69;100789.31;5057919;28;45449;-67
2021/08/15 11:14:19;;;;;;;;;11.75;11.75;;;;;28.51;42.81;100787.88;5057840;28;45604;-67
2021/08/15 11:16:46;;;;;;;;;15.25;12.25;;;;;28.57;42.75;100780.97;5054176;28;46989;-67
2021/08/15 11:19:12;;;;;;;;;11.75;10.75;;;;;28.64;43.11;100782.97;5057801;28;45383;-67